sensor_id;sensor_type;location;lat;lon;timestamp;pressure;altitude;pressure_sealevel;temperature
68588;BMP180;55560;52.174;20.996;2023-07-28T00:00:07;99712.00;;;17.10
68588;BMP180;55560;52.174;20.996;2023-07-28T00:03:01;99714.00;;;17.12
68588;BMP180;55560;52.174;20.996;2023-07-28T00:05:29;99708.80;;;17.10
68588;BMP180;55560;52.174;20.996;2023-07-28T00:07:57;99710.20;;;17.10
68588;BMP180;55560;52.174;20.996;2023-07-28T00:10:25;99711.00;;;17.10
68588;BMP180;55560;52.174;20.996;2023-07-28T00:12:52;99717.00;;;17.14
68588;BMP180;55560;52.174;20.996;2023-07-28T00:15:20;99716.80;;;17.20
68588;BMP180;55560;52.174;20.996;2023-07-28T00:17:48;99718.20;;;17.20
68588;BMP180;55560;52.174;20.996;2023-07-28T00:20:17;99714.60;;;17.20
68588;BMP180;55560;52.174;20.996;2023-07-28T00:22:45;99714.00;;;17.20
68588;BMP180;55560;52.174;20.996;2023-07-28T00:25:13;99707.60;;;17.20
68588;BMP180;55560;52.174;20.996;2023-07-28T00:27:41;99700.00;;;17.20
68588;BMP180;55560;52.174;20.996;2023-07-28T00:30:10;99697.80;;;17.20
68588;BMP180;55560;52.174;20.996;2023-07-28T00:32:39;99694.20;;;17.20
68588;BMP180;55560;52.174;20.996;2023-07-28T00:35:07;99694.20;;;17.20
68588;BMP180;55560;52.174;20.996;2023-07-28T00:37:35;99699.00;;;17.20
68588;BMP180;55560;52.174;20.996;2023-07-28T00:40:03;99692.40;;;17.20
68588;BMP180;55560;52.174;20.996;2023-07-28T00:42:32;99698.80;;;17.20
68588;BMP180;55560;52.174;20.996;2023-07-28T00:45:04;99697.00;;;17.20
68588;BMP180;55560;52.174;20.996;2023-07-28T00:47:32;99690.60;;;17.20
68588;BMP180;55560;52.174;20.996;2023-07-28T00:50:00;99690.80;;;17.20
68588;BMP180;55560;52.174;20.996;2023-07-28T00:52:29;99682.80;;;17.20
68588;BMP180;55560;52.174;20.996;2023-07-28T00:54:57;99678.40;;;17.20
68588;BMP180;55560;52.174;20.996;2023-07-28T00:57:25;99673.60;;;17.20
68588;BMP180;55560;52.174;20.996;2023-07-28T00:59:53;99676.00;;;17.20
68588;BMP180;55560;52.174;20.996;2023-07-28T01:04:56;99668.40;;;17.30
68588;BMP180;55560;52.174;20.996;2023-07-28T01:10:21;99667.00;;;17.28
68588;BMP180;55560;52.174;20.996;2023-07-28T01:12:50;99661.60;;;17.26
68588;BMP180;55560;52.174;20.996;2023-07-28T01:15:18;99660.60;;;17.20
68588;BMP180;55560;52.174;20.996;2023-07-28T01:17:46;99659.60;;;17.20
68588;BMP180;55560;52.174;20.996;2023-07-28T01:20:14;99657.20;;;17.20
68588;BMP180;55560;52.174;20.996;2023-07-28T01:28:24;99642.40;;;17.18
68588;BMP180;55560;52.174;20.996;2023-07-28T01:30:52;99643.80;;;17.18
68588;BMP180;55560;52.174;20.996;2023-07-28T01:33:20;99638.60;;;17.20
68588;BMP180;55560;52.174;20.996;2023-07-28T01:35:48;99638.80;;;17.10
68588;BMP180;55560;52.174;20.996;2023-07-28T01:38:16;99641.60;;;17.10
68588;BMP180;55560;52.174;20.996;2023-07-28T01:40:44;99644.20;;;17.10
68588;BMP180;55560;52.174;20.996;2023-07-28T01:43:12;99644.60;;;17.10
68588;BMP180;55560;52.174;20.996;2023-07-28T01:45:40;99636.40;;;17.10
68588;BMP180;55560;52.174;20.996;2023-07-28T01:48:08;99631.60;;;17.10
68588;BMP180;55560;52.174;20.996;2023-07-28T01:50:39;99635.00;;;17.10
68588;BMP180;55560;52.174;20.996;2023-07-28T01:53:07;99635.40;;;17.10
68588;BMP180;55560;52.174;20.996;2023-07-28T01:55:35;99634.20;;;17.10
68588;BMP180;55560;52.174;20.996;2023-07-28T01:58:03;99633.60;;;17.10
68588;BMP180;55560;52.174;20.996;2023-07-28T02:00:31;99633.20;;;17.00
68588;BMP180;55560;52.174;20.996;2023-07-28T02:02:59;99631.80;;;17.00
68588;BMP180;55560;52.174;20.996;2023-07-28T02:05:30;99630.20;;;17.00
68588;BMP180;55560;52.174;20.996;2023-07-28T02:07:58;99627.80;;;17.00
68588;BMP180;55560;52.174;20.996;2023-07-28T02:10:28;99628.20;;;16.92
68588;BMP180;55560;52.174;20.996;2023-07-28T02:12:56;99625.80;;;16.90
68588;BMP180;55560;52.174;20.996;2023-07-28T02:15:24;99624.40;;;16.90
68588;BMP180;55560;52.174;20.996;2023-07-28T02:17:52;99623.00;;;16.90
68588;BMP180;55560;52.174;20.996;2023-07-28T02:20:20;99616.20;;;16.90
68588;BMP180;55560;52.174;20.996;2023-07-28T02:22:48;99623.80;;;16.84
68588;BMP180;55560;52.174;20.996;2023-07-28T02:25:16;99622.60;;;16.84
68588;BMP180;55560;52.174;20.996;2023-07-28T02:27:44;99621.20;;;16.84
68588;BMP180;55560;52.174;20.996;2023-07-28T02:30:12;99622.60;;;16.88
68588;BMP180;55560;52.174;20.996;2023-07-28T02:32:40;99624.40;;;16.80
68588;BMP180;55560;52.174;20.996;2023-07-28T02:35:08;99621.40;;;16.82
68588;BMP180;55560;52.174;20.996;2023-07-28T02:37:38;99617.80;;;16.82
68588;BMP180;55560;52.174;20.996;2023-07-28T02:40:07;99613.00;;;16.80
68588;BMP180;55560;52.174;20.996;2023-07-28T02:42:35;99607.60;;;16.80
68588;BMP180;55560;52.174;20.996;2023-07-28T02:45:04;99617.60;;;16.80
68588;BMP180;55560;52.174;20.996;2023-07-28T02:47:31;99620.60;;;16.80
68588;BMP180;55560;52.174;20.996;2023-07-28T02:49:59;99618.80;;;16.80
68588;BMP180;55560;52.174;20.996;2023-07-28T02:52:27;99621.00;;;16.80
68588;BMP180;55560;52.174;20.996;2023-07-28T02:54:55;99621.00;;;16.80
68588;BMP180;55560;52.174;20.996;2023-07-28T02:57:23;99621.00;;;16.80
68588;BMP180;55560;52.174;20.996;2023-07-28T02:59:52;99611.80;;;16.90
68588;BMP180;55560;52.174;20.996;2023-07-28T03:02:20;99606.00;;;16.90
68588;BMP180;55560;52.174;20.996;2023-07-28T03:04:48;99609.20;;;16.90
68588;BMP180;55560;52.174;20.996;2023-07-28T03:07:17;99610.40;;;16.90
68588;BMP180;55560;52.174;20.996;2023-07-28T03:09:48;99613.60;;;16.90
68588;BMP180;55560;52.174;20.996;2023-07-28T03:12:16;99605.60;;;16.96
68588;BMP180;55560;52.174;20.996;2023-07-28T03:14:44;99605.20;;;17.00
68588;BMP180;55560;52.174;20.996;2023-07-28T03:17:12;99609.20;;;17.00
68588;BMP180;55560;52.174;20.996;2023-07-28T03:19:39;99606.00;;;17.00
68588;BMP180;55560;52.174;20.996;2023-07-28T03:22:07;99603.00;;;17.00
68588;BMP180;55560;52.174;20.996;2023-07-28T03:24:35;99594.80;;;17.00
68588;BMP180;55560;52.174;20.996;2023-07-28T03:27:04;99597.60;;;17.00
68588;BMP180;55560;52.174;20.996;2023-07-28T03:29:32;99593.40;;;17.00
68588;BMP180;55560;52.174;20.996;2023-07-28T03:32:00;99588.00;;;17.00
68588;BMP180;55560;52.174;20.996;2023-07-28T03:34:28;99591.80;;;17.00
68588;BMP180;55560;52.174;20.996;2023-07-28T03:36:57;99583.60;;;17.00
68588;BMP180;55560;52.174;20.996;2023-07-28T03:39:25;99582.80;;;17.00
68588;BMP180;55560;52.174;20.996;2023-07-28T03:41:53;99586.00;;;17.00
68588;BMP180;55560;52.174;20.996;2023-07-28T03:44:21;99587.80;;;16.90
68588;BMP180;55560;52.174;20.996;2023-07-28T03:46:49;99591.00;;;16.90
68588;BMP180;55560;52.174;20.996;2023-07-28T03:49:17;99589.60;;;16.90
68588;BMP180;55560;52.174;20.996;2023-07-28T03:51:45;99590.40;;;16.90
68588;BMP180;55560;52.174;20.996;2023-07-28T03:54:13;99587.60;;;16.92
68588;BMP180;55560;52.174;20.996;2023-07-28T03:56:41;99580.60;;;16.90
68588;BMP180;55560;52.174;20.996;2023-07-28T03:59:09;99577.60;;;16.90
68588;BMP180;55560;52.174;20.996;2023-07-28T04:01:36;99575.40;;;16.90
68588;BMP180;55560;52.174;20.996;2023-07-28T04:04:04;99581.20;;;16.90
68588;BMP180;55560;52.174;20.996;2023-07-28T04:06:44;99578.00;;;16.90
68588;BMP180;55560;52.174;20.996;2023-07-28T04:09:14;99580.20;;;16.90
68588;BMP180;55560;52.174;20.996;2023-07-28T04:11:43;99579.40;;;16.92
68588;BMP180;55560;52.174;20.996;2023-07-28T04:14:11;99574.80;;;17.00
68588;BMP180;55560;52.174;20.996;2023-07-28T04:16:40;99573.60;;;17.00
68588;BMP180;55560;52.174;20.996;2023-07-28T04:19:08;99579.00;;;17.00
68588;BMP180;55560;52.174;20.996;2023-07-28T04:21:35;99574.20;;;17.10
68588;BMP180;55560;52.174;20.996;2023-07-28T04:24:09;99571.40;;;17.10
68588;BMP180;55560;52.174;20.996;2023-07-28T04:26:42;99565.60;;;17.14
68588;BMP180;55560;52.174;20.996;2023-07-28T04:29:10;99565.40;;;17.20
68588;BMP180;55560;52.174;20.996;2023-07-28T04:31:38;99562.20;;;17.20
68588;BMP180;55560;52.174;20.996;2023-07-28T04:34:10;99560.40;;;17.30
68588;BMP180;55560;52.174;20.996;2023-07-28T04:37:06;99555.20;;;17.30
68588;BMP180;55560;52.174;20.996;2023-07-28T04:39:53;99547.80;;;17.40
68588;BMP180;55560;52.174;20.996;2023-07-28T04:42:21;99544.40;;;17.40
68588;BMP180;55560;52.174;20.996;2023-07-28T04:44:49;99542.80;;;17.40
68588;BMP180;55560;52.174;20.996;2023-07-28T04:47:18;99545.20;;;17.40
68588;BMP180;55560;52.174;20.996;2023-07-28T04:49:46;99546.00;;;17.42
68588;BMP180;55560;52.174;20.996;2023-07-28T04:52:33;99539.80;;;17.50
68588;BMP180;55560;52.174;20.996;2023-07-28T04:55:27;99536.60;;;17.50
68588;BMP180;55560;52.174;20.996;2023-07-28T04:57:56;99528.80;;;17.50
68588;BMP180;55560;52.174;20.996;2023-07-28T05:00:24;99530.60;;;17.50
68588;BMP180;55560;52.174;20.996;2023-07-28T05:02:53;99528.40;;;17.50
68588;BMP180;55560;52.174;20.996;2023-07-28T05:05:22;99529.80;;;17.60
68588;BMP180;55560;52.174;20.996;2023-07-28T05:07:50;99524.40;;;17.60
68588;BMP180;55560;52.174;20.996;2023-07-28T05:10:18;99529.20;;;17.70
68588;BMP180;55560;52.174;20.996;2023-07-28T05:12:46;99523.80;;;17.70
68588;BMP180;55560;52.174;20.996;2023-07-28T05:15:15;99526.80;;;17.78
68588;BMP180;55560;52.174;20.996;2023-07-28T05:17:43;99524.20;;;17.80
68588;BMP180;55560;52.174;20.996;2023-07-28T05:20:35;99527.40;;;17.90
68588;BMP180;55560;52.174;20.996;2023-07-28T05:23:10;99527.20;;;17.90
68588;BMP180;55560;52.174;20.996;2023-07-28T05:25:38;99527.40;;;17.90
68588;BMP180;55560;52.174;20.996;2023-07-28T05:28:07;99523.60;;;17.94
68588;BMP180;55560;52.174;20.996;2023-07-28T05:30:36;99520.80;;;18.00
68588;BMP180;55560;52.174;20.996;2023-07-28T05:33:05;99517.20;;;18.00
68588;BMP180;55560;52.174;20.996;2023-07-28T05:35:44;99521.40;;;18.10
68588;BMP180;55560;52.174;20.996;2023-07-28T05:38:12;99518.60;;;18.10
68588;BMP180;55560;52.174;20.996;2023-07-28T05:40:40;99520.80;;;18.10
68588;BMP180;55560;52.174;20.996;2023-07-28T05:43:08;99522.20;;;18.10
68588;BMP180;55560;52.174;20.996;2023-07-28T05:45:36;99518.20;;;18.10
68588;BMP180;55560;52.174;20.996;2023-07-28T05:48:05;99516.20;;;18.10
68588;BMP180;55560;52.174;20.996;2023-07-28T05:50:38;99519.00;;;18.20
68588;BMP180;55560;52.174;20.996;2023-07-28T05:53:06;99517.60;;;18.30
68588;BMP180;55560;52.174;20.996;2023-07-28T05:55:35;99519.20;;;18.34
68588;BMP180;55560;52.174;20.996;2023-07-28T05:58:03;99516.20;;;18.40
68588;BMP180;55560;52.174;20.996;2023-07-28T06:00:32;99519.00;;;18.40
68588;BMP180;55560;52.174;20.996;2023-07-28T06:03:00;99523.60;;;18.40
68588;BMP180;55560;52.174;20.996;2023-07-28T06:05:48;99521.20;;;18.50
68588;BMP180;55560;52.174;20.996;2023-07-28T06:08:16;99519.60;;;18.50
68588;BMP180;55560;52.174;20.996;2023-07-28T06:10:45;99521.20;;;18.50
68588;BMP180;55560;52.174;20.996;2023-07-28T06:13:13;99518.80;;;18.52
68588;BMP180;55560;52.174;20.996;2023-07-28T06:15:42;99525.40;;;18.60
68588;BMP180;55560;52.174;20.996;2023-07-28T06:18:10;99521.20;;;18.60
68588;BMP180;55560;52.174;20.996;2023-07-28T06:20:43;99528.40;;;18.60
68588;BMP180;55560;52.174;20.996;2023-07-28T06:23:11;99519.00;;;18.60
68588;BMP180;55560;52.174;20.996;2023-07-28T06:25:39;99518.20;;;18.60
68588;BMP180;55560;52.174;20.996;2023-07-28T06:28:12;99518.20;;;18.70
68588;BMP180;55560;52.174;20.996;2023-07-28T06:30:40;99517.00;;;18.70
68588;BMP180;55560;52.174;20.996;2023-07-28T06:33:08;99519.60;;;18.70
68588;BMP180;55560;52.174;20.996;2023-07-28T06:35:36;99523.40;;;18.70
68588;BMP180;55560;52.174;20.996;2023-07-28T06:38:04;99525.20;;;18.70
68588;BMP180;55560;52.174;20.996;2023-07-28T06:40:32;99526.60;;;18.76
68588;BMP180;55560;52.174;20.996;2023-07-28T06:43:01;99529.00;;;18.72
68588;BMP180;55560;52.174;20.996;2023-07-28T06:45:29;99528.40;;;18.70
68588;BMP180;55560;52.174;20.996;2023-07-28T06:47:57;99526.20;;;18.70
68588;BMP180;55560;52.174;20.996;2023-07-28T06:50:25;99523.60;;;18.70
68588;BMP180;55560;52.174;20.996;2023-07-28T06:52:53;99511.80;;;18.78
68588;BMP180;55560;52.174;20.996;2023-07-28T06:55:23;99510.60;;;18.80
68588;BMP180;55560;52.174;20.996;2023-07-28T06:57:51;99510.60;;;18.80
68588;BMP180;55560;52.174;20.996;2023-07-28T07:00:20;99512.60;;;18.80
68588;BMP180;55560;52.174;20.996;2023-07-28T07:02:47;99516.80;;;18.80
68588;BMP180;55560;52.174;20.996;2023-07-28T07:05:16;99515.60;;;18.80
68588;BMP180;55560;52.174;20.996;2023-07-28T07:07:44;99518.00;;;18.80
68588;BMP180;55560;52.174;20.996;2023-07-28T07:10:12;99525.60;;;18.80
68588;BMP180;55560;52.174;20.996;2023-07-28T07:12:40;99524.40;;;18.70
68588;BMP180;55560;52.174;20.996;2023-07-28T07:15:08;99533.60;;;18.60
68588;BMP180;55560;52.174;20.996;2023-07-28T07:17:36;99536.40;;;18.50
68588;BMP180;55560;52.174;20.996;2023-07-28T07:20:04;99535.80;;;18.50
68588;BMP180;55560;52.174;20.996;2023-07-28T07:22:33;99539.60;;;18.36
68588;BMP180;55560;52.174;20.996;2023-07-28T07:25:01;99541.60;;;18.30
68588;BMP180;55560;52.174;20.996;2023-07-28T07:27:32;99542.40;;;18.20
68588;BMP180;55560;52.174;20.996;2023-07-28T07:29:59;99536.60;;;18.20
68588;BMP180;55560;52.174;20.996;2023-07-28T07:32:27;99536.60;;;18.20
68588;BMP180;55560;52.174;20.996;2023-07-28T07:34:56;99532.60;;;18.20
68588;BMP180;55560;52.174;20.996;2023-07-28T07:37:27;99536.20;;;18.12
68588;BMP180;55560;52.174;20.996;2023-07-28T07:39:55;99534.40;;;18.10
68588;BMP180;55560;52.174;20.996;2023-07-28T07:42:23;99525.80;;;18.10
68588;BMP180;55560;52.174;20.996;2023-07-28T07:44:51;99526.40;;;18.20
68588;BMP180;55560;52.174;20.996;2023-07-28T07:47:19;99533.80;;;18.20
68588;BMP180;55560;52.174;20.996;2023-07-28T07:49:47;99525.80;;;18.20
68588;BMP180;55560;52.174;20.996;2023-07-28T07:52:15;99523.40;;;18.10
68588;BMP180;55560;52.174;20.996;2023-07-28T07:54:42;99519.60;;;18.10
68588;BMP180;55560;52.174;20.996;2023-07-28T07:57:10;99523.00;;;18.20
68588;BMP180;55560;52.174;20.996;2023-07-28T07:59:38;99524.40;;;18.30
68588;BMP180;55560;52.174;20.996;2023-07-28T08:02:06;99523.60;;;18.30
68588;BMP180;55560;52.174;20.996;2023-07-28T08:04:34;99528.60;;;18.30
68588;BMP180;55560;52.174;20.996;2023-07-28T08:07:02;99532.00;;;18.30
68588;BMP180;55560;52.174;20.996;2023-07-28T08:09:32;99531.20;;;18.30
68588;BMP180;55560;52.174;20.996;2023-07-28T08:12:03;99524.60;;;18.30
68588;BMP180;55560;52.174;20.996;2023-07-28T08:14:32;99526.40;;;18.30
68588;BMP180;55560;52.174;20.996;2023-07-28T08:17:00;99524.00;;;18.30
68588;BMP180;55560;52.174;20.996;2023-07-28T08:19:29;99523.40;;;18.30
68588;BMP180;55560;52.174;20.996;2023-07-28T08:21:57;99519.60;;;18.30
68588;BMP180;55560;52.174;20.996;2023-07-28T08:24:25;99517.80;;;18.30
68588;BMP180;55560;52.174;20.996;2023-07-28T08:26:53;99512.20;;;18.40
68588;BMP180;55560;52.174;20.996;2023-07-28T08:29:21;99516.00;;;18.40
68588;BMP180;55560;52.174;20.996;2023-07-28T08:31:48;99512.20;;;18.50
68588;BMP180;55560;52.174;20.996;2023-07-28T08:34:16;99506.80;;;18.54
68588;BMP180;55560;52.174;20.996;2023-07-28T08:36:45;99513.00;;;18.60
68588;BMP180;55560;52.174;20.996;2023-07-28T08:39:14;99511.60;;;18.60
68588;BMP180;55560;52.174;20.996;2023-07-28T08:41:43;99521.80;;;18.70
68588;BMP180;55560;52.174;20.996;2023-07-28T08:44:11;99519.20;;;18.70
68588;BMP180;55560;52.174;20.996;2023-07-28T08:46:39;99518.20;;;18.78
68588;BMP180;55560;52.174;20.996;2023-07-28T08:49:07;99517.00;;;18.80
68588;BMP180;55560;52.174;20.996;2023-07-28T08:51:41;99515.40;;;18.90
68588;BMP180;55560;52.174;20.996;2023-07-28T08:54:10;99517.40;;;19.00
68588;BMP180;55560;52.174;20.996;2023-07-28T08:56:39;99513.60;;;19.00
68588;BMP180;55560;52.174;20.996;2023-07-28T08:59:06;99507.20;;;19.00
68588;BMP180;55560;52.174;20.996;2023-07-28T09:01:39;99506.60;;;19.10
68588;BMP180;55560;52.174;20.996;2023-07-28T09:04:11;99500.80;;;19.10
68588;BMP180;55560;52.174;20.996;2023-07-28T09:06:39;99502.00;;;19.20
68588;BMP180;55560;52.174;20.996;2023-07-28T09:09:07;99491.60;;;19.20
68588;BMP180;55560;52.174;20.996;2023-07-28T09:11:48;99487.00;;;19.20
68588;BMP180;55560;52.174;20.996;2023-07-28T09:14:20;99496.20;;;19.30
68588;BMP180;55560;52.174;20.996;2023-07-28T09:16:48;99494.00;;;19.30
68588;BMP180;55560;52.174;20.996;2023-07-28T09:19:16;99498.00;;;19.30
68588;BMP180;55560;52.174;20.996;2023-07-28T09:21:44;99498.40;;;19.30
68588;BMP180;55560;52.174;20.996;2023-07-28T09:24:15;99498.40;;;19.30
68588;BMP180;55560;52.174;20.996;2023-07-28T09:26:47;99494.00;;;19.30
68588;BMP180;55560;52.174;20.996;2023-07-28T09:29:18;99491.80;;;19.40
68588;BMP180;55560;52.174;20.996;2023-07-28T09:31:48;99496.00;;;19.50
68588;BMP180;55560;52.174;20.996;2023-07-28T09:34:27;99488.40;;;19.60
68588;BMP180;55560;52.174;20.996;2023-07-28T09:36:57;99484.20;;;19.60
68588;BMP180;55560;52.174;20.996;2023-07-28T09:39:26;99490.80;;;19.70
68588;BMP180;55560;52.174;20.996;2023-07-28T09:41:56;99489.40;;;19.70
68588;BMP180;55560;52.174;20.996;2023-07-28T09:44:26;99486.60;;;19.68
68588;BMP180;55560;52.174;20.996;2023-07-28T09:46:56;99480.80;;;19.70
68588;BMP180;55560;52.174;20.996;2023-07-28T09:49:35;99478.40;;;19.70
68588;BMP180;55560;52.174;20.996;2023-07-28T09:52:08;99477.60;;;19.70
68588;BMP180;55560;52.174;20.996;2023-07-28T09:54:40;99482.40;;;19.70
68588;BMP180;55560;52.174;20.996;2023-07-28T09:57:13;99479.40;;;19.70
68588;BMP180;55560;52.174;20.996;2023-07-28T09:59:45;99478.60;;;19.70
68588;BMP180;55560;52.174;20.996;2023-07-28T10:02:14;99470.80;;;19.70
68588;BMP180;55560;52.174;20.996;2023-07-28T10:04:43;99471.40;;;19.70
68588;BMP180;55560;52.174;20.996;2023-07-28T10:07:10;99467.60;;;19.70
68588;BMP180;55560;52.174;20.996;2023-07-28T10:09:39;99472.80;;;19.80
68588;BMP180;55560;52.174;20.996;2023-07-28T10:12:17;99470.80;;;19.80
68588;BMP180;55560;52.174;20.996;2023-07-28T10:14:45;99466.40;;;19.80
68588;BMP180;55560;52.174;20.996;2023-07-28T10:17:17;99468.40;;;19.90
68588;BMP180;55560;52.174;20.996;2023-07-28T10:19:45;99472.40;;;19.90
68588;BMP180;55560;52.174;20.996;2023-07-28T10:22:13;99469.40;;;20.00
68588;BMP180;55560;52.174;20.996;2023-07-28T10:24:54;99471.60;;;20.10
68588;BMP180;55560;52.174;20.996;2023-07-28T10:27:38;99466.40;;;20.20
68588;BMP180;55560;52.174;20.996;2023-07-28T10:30:13;99463.60;;;20.20
68588;BMP180;55560;52.174;20.996;2023-07-28T10:32:48;99466.60;;;20.30
68588;BMP180;55560;52.174;20.996;2023-07-28T10:35:25;99468.40;;;20.32
68588;BMP180;55560;52.174;20.996;2023-07-28T10:37:54;99464.20;;;20.30
68588;BMP180;55560;52.174;20.996;2023-07-28T10:40:32;99460.20;;;20.40
68588;BMP180;55560;52.174;20.996;2023-07-28T10:43:04;99453.40;;;20.40
68588;BMP180;55560;52.174;20.996;2023-07-28T10:45:35;99450.60;;;20.40
68588;BMP180;55560;52.174;20.996;2023-07-28T10:48:03;99453.60;;;20.40
68588;BMP180;55560;52.174;20.996;2023-07-28T10:50:32;99451.40;;;20.40
68588;BMP180;55560;52.174;20.996;2023-07-28T10:53:00;99448.00;;;20.50
68588;BMP180;55560;52.174;20.996;2023-07-28T10:55:28;99446.40;;;20.60
68588;BMP180;55560;52.174;20.996;2023-07-28T10:57:56;99438.40;;;20.60
68588;BMP180;55560;52.174;20.996;2023-07-28T11:00:26;99446.00;;;20.60
68588;BMP180;55560;52.174;20.996;2023-07-28T11:02:54;99446.00;;;20.62
68588;BMP180;55560;52.174;20.996;2023-07-28T11:05:30;99445.40;;;20.60
68588;BMP180;55560;52.174;20.996;2023-07-28T11:08:00;99442.40;;;20.60
68588;BMP180;55560;52.174;20.996;2023-07-28T11:10:30;99445.60;;;20.64
68588;BMP180;55560;52.174;20.996;2023-07-28T11:13:03;99444.40;;;20.60
68588;BMP180;55560;52.174;20.996;2023-07-28T11:15:53;99442.20;;;20.60
68588;BMP180;55560;52.174;20.996;2023-07-28T11:18:21;99442.20;;;20.70
68588;BMP180;55560;52.174;20.996;2023-07-28T11:20:49;99444.60;;;20.70
68588;BMP180;55560;52.174;20.996;2023-07-28T11:23:17;99443.00;;;20.70
68588;BMP180;55560;52.174;20.996;2023-07-28T11:25:46;99438.40;;;20.78
68588;BMP180;55560;52.174;20.996;2023-07-28T11:28:15;99434.20;;;21.00
68588;BMP180;55560;52.174;20.996;2023-07-28T11:30:44;99432.80;;;21.20
68588;BMP180;55560;52.174;20.996;2023-07-28T11:33:12;99433.00;;;21.30
68588;BMP180;55560;52.174;20.996;2023-07-28T11:35:44;99436.80;;;21.50
68588;BMP180;55560;52.174;20.996;2023-07-28T11:38:14;99432.60;;;21.80
68588;BMP180;55560;52.174;20.996;2023-07-28T11:40:42;99428.20;;;22.06
68588;BMP180;55560;52.174;20.996;2023-07-28T11:43:10;99424.80;;;22.20
68588;BMP180;55560;52.174;20.996;2023-07-28T11:45:39;99424.20;;;22.40
68588;BMP180;55560;52.174;20.996;2023-07-28T11:48:07;99423.60;;;22.60
68588;BMP180;55560;52.174;20.996;2023-07-28T11:50:38;99428.00;;;22.70
68588;BMP180;55560;52.174;20.996;2023-07-28T11:53:08;99432.80;;;22.80
68588;BMP180;55560;52.174;20.996;2023-07-28T11:55:37;99426.40;;;22.90
68588;BMP180;55560;52.174;20.996;2023-07-28T11:58:06;99425.20;;;22.90
68588;BMP180;55560;52.174;20.996;2023-07-28T12:00:36;99426.00;;;23.00
68588;BMP180;55560;52.174;20.996;2023-07-28T12:03:11;99428.60;;;22.98
68588;BMP180;55560;52.174;20.996;2023-07-28T12:06:04;99420.40;;;23.10
68588;BMP180;55560;52.174;20.996;2023-07-28T12:08:37;99423.20;;;23.30
68588;BMP180;55560;52.174;20.996;2023-07-28T12:11:11;99421.60;;;23.42
68588;BMP180;55560;52.174;20.996;2023-07-28T12:13:48;99422.60;;;23.50
68588;BMP180;55560;52.174;20.996;2023-07-28T12:16:41;99427.20;;;23.60
68588;BMP180;55560;52.174;20.996;2023-07-28T12:19:12;99423.20;;;23.60
68588;BMP180;55560;52.174;20.996;2023-07-28T12:21:40;99424.80;;;23.70
68588;BMP180;55560;52.174;20.996;2023-07-28T12:24:08;99429.00;;;23.90
68588;BMP180;55560;52.174;20.996;2023-07-28T12:26:36;99433.40;;;23.82
68588;BMP180;55560;52.174;20.996;2023-07-28T12:29:07;99427.00;;;23.68
68588;BMP180;55560;52.174;20.996;2023-07-28T12:31:38;99418.40;;;23.60
68588;BMP180;55560;52.174;20.996;2023-07-28T12:34:10;99424.20;;;23.70
68588;BMP180;55560;52.174;20.996;2023-07-28T12:36:38;99429.80;;;23.90
68588;BMP180;55560;52.174;20.996;2023-07-28T12:39:09;99429.20;;;24.00
68588;BMP180;55560;52.174;20.996;2023-07-28T12:41:40;99435.60;;;23.90
68588;BMP180;55560;52.174;20.996;2023-07-28T12:44:11;99435.60;;;23.80
68588;BMP180;55560;52.174;20.996;2023-07-28T12:46:43;99435.20;;;23.66
68588;BMP180;55560;52.174;20.996;2023-07-28T12:49:11;99432.40;;;23.58
68588;BMP180;55560;52.174;20.996;2023-07-28T12:51:48;99430.00;;;23.50
68588;BMP180;55560;52.174;20.996;2023-07-28T12:54:19;99434.60;;;23.48
68588;BMP180;55560;52.174;20.996;2023-07-28T12:56:47;99439.60;;;23.30
68588;BMP180;55560;52.174;20.996;2023-07-28T12:59:36;99439.40;;;23.20
68588;BMP180;55560;52.174;20.996;2023-07-28T13:02:25;99440.20;;;23.10
68588;BMP180;55560;52.174;20.996;2023-07-28T13:04:53;99442.80;;;23.10
68588;BMP180;55560;52.174;20.996;2023-07-28T13:07:21;99447.60;;;23.00
68588;BMP180;55560;52.174;20.996;2023-07-28T13:09:53;99454.60;;;23.00
68588;BMP180;55560;52.174;20.996;2023-07-28T13:12:22;99466.20;;;22.90
68588;BMP180;55560;52.174;20.996;2023-07-28T13:14:52;99462.60;;;22.80
68588;BMP180;55560;52.174;20.996;2023-07-28T13:17:20;99466.20;;;22.70
68588;BMP180;55560;52.174;20.996;2023-07-28T13:19:48;99464.80;;;22.60
68588;BMP180;55560;52.174;20.996;2023-07-28T13:22:17;99454.80;;;22.60
68588;BMP180;55560;52.174;20.996;2023-07-28T13:24:44;99459.40;;;22.60
68588;BMP180;55560;52.174;20.996;2023-07-28T13:27:12;99455.60;;;22.50
68588;BMP180;55560;52.174;20.996;2023-07-28T13:29:40;99455.60;;;22.40
68588;BMP180;55560;52.174;20.996;2023-07-28T13:32:23;99454.60;;;22.40
68588;BMP180;55560;52.174;20.996;2023-07-28T13:34:51;99457.80;;;22.40
68588;BMP180;55560;52.174;20.996;2023-07-28T13:37:22;99457.00;;;22.36
68588;BMP180;55560;52.174;20.996;2023-07-28T13:39:50;99459.00;;;22.40
68588;BMP180;55560;52.174;20.996;2023-07-28T13:42:19;99459.80;;;22.40
68588;BMP180;55560;52.174;20.996;2023-07-28T13:44:47;99459.80;;;22.34
68588;BMP180;55560;52.174;20.996;2023-07-28T13:47:25;99460.60;;;22.34
68588;BMP180;55560;52.174;20.996;2023-07-28T13:49:53;99455.80;;;22.40
68588;BMP180;55560;52.174;20.996;2023-07-28T13:52:21;99456.00;;;22.78
68588;BMP180;55560;52.174;20.996;2023-07-28T13:54:49;99450.00;;;23.34
68588;BMP180;55560;52.174;20.996;2023-07-28T13:57:20;99459.60;;;23.88
68588;BMP180;55560;52.174;20.996;2023-07-28T13:59:48;99459.00;;;24.02
68588;BMP180;55560;52.174;20.996;2023-07-28T14:02:17;99450.20;;;24.42
68588;BMP180;55560;52.174;20.996;2023-07-28T14:04:46;99445.40;;;24.60
68588;BMP180;55560;52.174;20.996;2023-07-28T14:07:14;99449.00;;;24.70
68588;BMP180;55560;52.174;20.996;2023-07-28T14:09:41;99455.60;;;24.60
68588;BMP180;55560;52.174;20.996;2023-07-28T14:12:09;99450.20;;;24.42
68588;BMP180;55560;52.174;20.996;2023-07-28T14:14:37;99448.20;;;24.24
68588;BMP180;55560;52.174;20.996;2023-07-28T14:17:05;99458.00;;;24.10
68588;BMP180;55560;52.174;20.996;2023-07-28T14:19:34;99461.80;;;23.88
68588;BMP180;55560;52.174;20.996;2023-07-28T14:22:02;99449.80;;;23.80